Misión y Visión

La misión es proporcionar información fiable a la navegación aérea, contribuyendo a la seguridad, regularidad y eficiencia de la Navegación Aérea Internacional

La visión es contribuir sustancialmente al desarrollo de conocimientos y a la utilización de la meteorología aeronáutica a nivel nacional e internacional, mediante la innovación y la coparticipación con sectores sociales y productivos de la sociedad.

 
  Inicio
  Metar
  Taf
  Wintemp
  SIGMET
  Avisos
  Pronósticos
  Carpeta Meteorologica
  Imágenes Satelitales
  Climatología Aeronáutica
   
  ¿Quienes Somos?
  Contacto
  Eventos
Taf

 

IMÁGENES DEL AEROPUERTO
(EN CONSTRUCCION)

 

PRONOSTICO DE AERÓDROMO
TAF / PROYECCION CLIMATICA
MES DE JULIO

 

AEROPUERTO ENRIQUE MALEK:

TAF MPDA 202300Z 2100/2112 VRB02KT 9999 SCT018=


TAF:

TAF MPSM 202300Z 2100/2206 34009KT 9999 FEW020 TEMPO 2106/2110 33004KT TEMPO 2117/2121 17006Kt=

 

AEROPUERTO PANAMA PACIFICO:

hola



TAF:



AEROPUERTO MARCOS A. GELABERT:

TAF MPMG 202300Z 2100/2112 32008KT 9999 SCT018 TEMPO 2106/2110 00000KT



TAF:



AEROPUERTO INTL. DE TOCUMEN:

TAF MPTO 202300Z 2100/2206 29005KT 9999 SCT018 TEMPO 2106/2110 VRB02KT PROB30 TEMPO 2119/2123 6000 TSRA SCT015CB BKN090=



TAF:

TAF MPPA 202300Z 2100/2206 01010KT 9999 FEW020 TEMPO 2106/2110 01005KT PROB30 TEMPO 2119/2123 7000 TSRA SCT018CB SCT090=